createdAt,value
2022-08-09T00:00:00.209Z,24.70
2022-08-09T00:06:19.590Z,24.70
2022-08-09T00:12:26.377Z,24.60
2022-08-09T00:18:38.140Z,24.50
2022-08-09T00:24:40.296Z,24.50
2022-08-09T00:30:43.172Z,24.40
2022-08-09T00:36:45.577Z,24.40
2022-08-09T00:44:16.132Z,24.30
2022-08-09T00:49:11.101Z,24.30
2022-08-09T00:55:16.741Z,24.30
2022-08-09T01:01:44.818Z,24.30
2022-08-09T01:08:05.347Z,24.30
2022-08-09T01:14:27.291Z,24.40
2022-08-09T01:21:10.013Z,24.40
2022-08-09T01:27:13.595Z,24.20
2022-08-09T01:33:17.456Z,24.20
2022-08-09T01:39:23.152Z,24.00
2022-08-09T01:45:27.121Z,23.90
2022-08-09T01:51:33.335Z,23.90
2022-08-09T01:57:44.299Z,24.00
2022-08-09T02:03:49.774Z,24.10
2022-08-09T02:10:05.656Z,23.80
2022-08-09T02:16:12.312Z,23.50
2022-08-09T02:22:27.299Z,23.50
2022-08-09T02:28:39.348Z,23.60
2022-08-09T02:34:55.671Z,23.50
2022-08-09T02:41:07.625Z,23.50
2022-08-09T02:47:12.785Z,23.40
2022-08-09T02:53:26.518Z,23.40
2022-08-09T02:59:36.414Z,23.20
2022-08-09T03:05:40.316Z,23.20
2022-08-09T03:12:06.396Z,23.20
2022-08-09T03:18:09.672Z,23.10
2022-08-09T03:24:12.926Z,23.00
2022-08-09T03:30:36.652Z,23.20
2022-08-09T03:36:39.439Z,23.10
2022-08-09T03:42:42.917Z,23.10
2022-08-09T03:48:51.815Z,23.10
2022-08-09T03:54:56.671Z,23.20
2022-08-09T04:00:59.697Z,23.30
2022-08-09T04:07:04.603Z,23.40
2022-08-09T04:13:11.587Z,23.80
2022-08-09T04:19:15.967Z,24.00
2022-08-09T04:25:36.856Z,24.10
2022-08-09T04:31:46.919Z,24.40
2022-08-09T04:37:50.263Z,24.70
2022-08-09T04:44:05.253Z,24.90
2022-08-09T04:50:08.866Z,25.10
2022-08-09T04:56:12.170Z,25.40
2022-08-09T05:02:30.638Z,25.60
2022-08-09T05:08:35.090Z,25.90
2022-08-09T05:14:38.127Z,26.20
2022-08-09T05:20:43.836Z,26.60
2022-08-09T05:26:47.821Z,27.10
2022-08-09T05:32:50.675Z,27.50
2022-08-09T05:38:53.353Z,27.90
2022-08-09T05:44:56.388Z,28.20
2022-08-09T05:51:41.547Z,28.40
2022-08-09T05:57:20.881Z,29.00
2022-08-09T06:03:44.016Z,33.80
2022-08-09T06:10:02.812Z,35.30
2022-08-09T06:16:05.535Z,36.60
2022-08-09T06:22:15.217Z,36.40
2022-08-09T06:28:17.845Z,37.80
2022-08-09T06:34:23.470Z,38.50
2022-08-09T06:40:28.652Z,36.90
2022-08-09T06:46:40.090Z,36.50
2022-08-09T06:52:48.532Z,36.70
2022-08-09T07:00:50.758Z,36.80
2022-08-09T07:05:12.997Z,36.50
2022-08-09T07:11:17.560Z,37.00
2022-08-09T07:17:25.731Z,38.50
2022-08-09T07:23:46.742Z,36.00
2022-08-09T07:30:00.785Z,37.90
2022-08-09T07:36:03.782Z,36.80
2022-08-09T07:42:07.927Z,37.40
2022-08-09T07:48:25.311Z,35.90
2022-08-09T07:54:32.592Z,36.00
2022-08-09T08:00:36.193Z,38.60
2022-08-09T08:06:55.902Z,40.00
2022-08-09T08:12:58.577Z,40.40
2022-08-09T08:19:02.823Z,40.30
2022-08-09T08:25:13.199Z,39.80
2022-08-09T08:31:19.403Z,41.10
2022-08-09T08:37:21.842Z,40.70
2022-08-09T08:43:28.096Z,40.20
2022-08-09T08:49:46.301Z,40.50
2022-08-09T08:55:52.351Z,40.70
2022-08-09T09:01:57.329Z,40.80
2022-08-09T09:08:03.110Z,41.80
2022-08-09T09:14:15.671Z,41.30
2022-08-09T09:20:18.135Z,41.50
2022-08-09T09:26:26.202Z,42.50
2022-08-09T09:32:35.192Z,39.80
2022-08-09T09:38:57.212Z,38.90
2022-08-09T09:45:01.478Z,38.20
2022-08-09T09:51:07.035Z,38.40
2022-08-09T09:58:03.292Z,37.60
2022-08-09T10:03:43.632Z,39.10
2022-08-09T10:09:54.809Z,38.30
2022-08-09T10:16:54.661Z,40.40
2022-08-09T10:22:33.048Z,41.50
2022-08-09T10:28:37.620Z,40.50
2022-08-09T10:34:40.729Z,39.90
2022-08-09T10:40:50.291Z,39.70
2022-08-09T10:46:57.689Z,40.10
2022-08-09T10:53:21.294Z,40.40
2022-08-09T10:59:31.103Z,39.60
2022-08-09T11:05:33.985Z,39.20
2022-08-09T11:11:59.997Z,39.70
2022-08-09T11:18:04.084Z,39.90
2022-08-09T11:24:06.486Z,40.10
2022-08-09T11:30:32.049Z,40.10
2022-08-09T11:36:43.379Z,39.80
2022-08-09T11:42:52.775Z,39.60
2022-08-09T11:48:57.430Z,39.50
2022-08-09T11:55:34.918Z,39.40
2022-08-09T12:02:16.359Z,39.20
2022-08-09T12:08:21.834Z,39.60
2022-08-09T12:14:36.910Z,41.00
2022-08-09T12:20:44.004Z,41.60
2022-08-09T12:29:13.570Z,42.50
2022-08-09T12:33:20.161Z,43.20
2022-08-09T12:39:24.054Z,43.60
2022-08-09T12:45:34.534Z,43.60
2022-08-09T12:52:00.917Z,40.50
2022-08-09T12:58:24.141Z,39.60
2022-08-09T13:04:36.294Z,41.40
2022-08-09T13:10:52.098Z,39.80
2022-08-09T13:17:01.119Z,38.80
2022-08-09T13:24:06.426Z,36.50
2022-08-09T13:29:28.664Z,35.70
2022-08-09T13:36:41.604Z,35.70
2022-08-09T13:42:15.404Z,36.10
2022-08-09T13:48:18.192Z,36.10
2022-08-09T13:54:20.361Z,35.70
2022-08-09T14:00:29.611Z,35.50
2022-08-09T14:06:33.238Z,35.50
2022-08-09T14:12:37.347Z,35.20
2022-08-09T14:18:43.401Z,34.90
2022-08-09T14:24:54.042Z,34.80
2022-08-09T14:30:56.718Z,34.80
2022-08-09T14:37:06.543Z,34.80
2022-08-09T14:43:09.822Z,34.80
2022-08-09T14:49:19.010Z,34.50
2022-08-09T14:55:29.169Z,34.10
2022-08-09T15:01:34.635Z,34.10
2022-08-09T15:07:37.083Z,34.00
2022-08-09T15:13:56.433Z,33.70
2022-08-09T15:20:02.789Z,33.60
2022-08-09T15:26:09.219Z,33.60
2022-08-09T15:32:38.998Z,33.60
2022-08-09T15:38:41.548Z,33.60
2022-08-09T15:44:43.891Z,33.40
2022-08-09T15:50:48.416Z,33.30
2022-08-09T15:56:50.962Z,33.20
2022-08-09T16:02:56.805Z,33.10
2022-08-09T16:09:03.236Z,33.00
2022-08-09T16:16:04.504Z,32.90
2022-08-09T16:21:34.808Z,32.80
2022-08-09T16:27:38.473Z,32.70
2022-08-09T16:33:44.268Z,32.70
2022-08-09T16:39:54.643Z,32.50
2022-08-09T16:46:08.207Z,32.40
2022-08-09T16:52:13.062Z,32.20
2022-08-09T16:58:16.795Z,32.00
2022-08-09T17:04:26.114Z,31.80
2022-08-09T17:10:31.092Z,31.60
2022-08-09T17:16:38.227Z,31.50
2022-08-09T17:22:49.915Z,31.30
2022-08-09T17:28:52.871Z,31.20
2022-08-09T17:35:04.401Z,30.90
2022-08-09T17:41:14.223Z,30.40
2022-08-09T17:47:18.769Z,30.00
2022-08-09T17:53:26.220Z,29.70
2022-08-09T17:59:38.010Z,29.50
2022-08-09T18:05:43.946Z,29.30
2022-08-09T18:12:05.802Z,29.10
2022-08-09T18:18:08.922Z,29.00
2022-08-09T18:24:28.426Z,28.80
2022-08-09T18:30:42.346Z,28.70
2022-08-09T18:36:53.494Z,28.50
2022-08-09T18:42:55.886Z,28.40
2022-08-09T18:49:01.939Z,28.40
2022-08-09T18:55:05.811Z,28.30
2022-08-09T19:01:16.040Z,28.30
2022-08-09T19:07:18.336Z,28.20
2022-08-09T19:13:23.632Z,28.10
2022-08-09T19:19:43.604Z,28.00
2022-08-09T19:26:02.427Z,27.70
2022-08-09T19:32:08.508Z,27.50
2022-08-09T19:38:10.715Z,27.20
2022-08-09T19:44:12.725Z,27.00
2022-08-09T19:50:50.538Z,26.90
2022-08-09T19:56:42.990Z,26.60
2022-08-09T20:04:08.276Z,26.40
2022-08-09T20:09:45.263Z,26.20
2022-08-09T20:16:34.221Z,26.20
2022-08-09T20:22:00.059Z,26.10
2022-08-09T20:28:02.811Z,25.90
2022-08-09T20:34:06.039Z,25.80
2022-08-09T20:40:14.871Z,25.70
2022-08-09T20:46:42.293Z,25.60
2022-08-09T20:52:42.445Z,25.50
2022-08-09T20:58:47.701Z,25.50
2022-08-09T21:05:56.169Z,25.40
2022-08-09T21:18:22.877Z,25.20
2022-08-09T21:24:02.412Z,25.10
2022-08-09T21:30:05.360Z,24.90
2022-08-09T21:36:07.875Z,24.80
2022-08-09T21:42:13.871Z,24.60
2022-08-09T21:48:16.939Z,24.40
2022-08-09T21:54:19.426Z,24.30
2022-08-09T22:00:33.394Z,24.20
2022-08-09T22:06:35.773Z,24.00
2022-08-09T22:12:39.355Z,23.90
2022-08-09T22:18:54.136Z,23.80
2022-08-09T22:26:07.584Z,23.60
2022-08-09T22:31:19.599Z,23.50
2022-08-09T22:37:24.404Z,23.50
2022-08-09T22:44:00.788Z,23.60
2022-08-09T22:49:52.596Z,23.60
2022-08-09T22:56:31.458Z,23.50
2022-08-09T23:02:20.241Z,23.40
2022-08-09T23:08:41.070Z,23.20
2022-08-09T23:14:43.416Z,23.10
2022-08-09T23:20:46.630Z,22.90
2022-08-09T23:26:48.723Z,22.80
2022-08-09T23:32:50.882Z,22.80
2022-08-09T23:38:53.222Z,22.80
2022-08-09T23:44:55.375Z,22.70
2022-08-09T23:50:57.575Z,22.80
2022-08-09T23:57:00.042Z,22.80
